createdAt,value
2024-02-06T00:06:01.153Z,100214.22
2024-02-06T00:16:12.264Z,100222.06
2024-02-06T00:26:14.083Z,100223.06
2024-02-06T00:36:26.192Z,100223.06
2024-02-06T00:46:30.698Z,100212.53
2024-02-06T00:56:34.066Z,100209.78
2024-02-06T01:06:36.545Z,100202.72
2024-02-06T01:16:38.637Z,100203.56
2024-02-06T01:26:41.713Z,100192.50
2024-02-06T01:36:53.675Z,100181.41
2024-02-06T01:46:58.334Z,100177.19
2024-02-06T01:57:02.933Z,100171.38
2024-02-06T02:07:08.028Z,100174.03
2024-02-06T02:17:09.972Z,100162.00
2024-02-06T02:27:15.416Z,100140.56
2024-02-06T02:37:18.342Z,100142.47
2024-02-06T02:47:20.672Z,100131.31
2024-02-06T02:57:23.689Z,100138.16
2024-02-06T03:07:25.658Z,100143.25
2024-02-06T03:17:33.415Z,100135.41
2024-02-06T03:27:40.389Z,100133.59
2024-02-06T03:37:42.492Z,100129.28
2024-02-06T03:47:44.828Z,100130.38
2024-02-06T03:57:50.054Z,100123.63
2024-02-06T04:07:52.386Z,100119.31
2024-02-06T04:18:01.425Z,100111.63
2024-02-06T04:28:03.482Z,100120.81
2024-02-06T04:38:09.352Z,100115.88
2024-02-06T04:48:11.209Z,100116.25
2024-02-06T04:58:13.556Z,100105.75
2024-02-06T05:08:15.428Z,100108.88
2024-02-06T05:18:18.435Z,100088.28
2024-02-06T05:28:21.912Z,100092.28
2024-02-06T05:38:24.357Z,100086.44
2024-02-06T05:48:29.044Z,100076.34
2024-02-06T05:58:32.815Z,100060.88
2024-02-06T06:08:38.513Z,100066.16
2024-02-06T06:18:41.548Z,100068.16
2024-02-06T06:28:43.719Z,100063.19
2024-02-06T06:38:45.629Z,100072.78
2024-02-06T06:48:48.640Z,100071.47
2024-02-06T06:58:51.474Z,100078.50
2024-02-06T07:08:55.994Z,100057.25
2024-02-06T07:18:58.983Z,100055.59
2024-02-06T07:29:01.262Z,100052.25
2024-02-06T07:39:05.134Z,100052.31
2024-02-06T07:49:07.129Z,100057.53
2024-02-06T07:59:12.893Z,100065.28
2024-02-06T08:09:15.060Z,100065.41
2024-02-06T08:19:19.544Z,100072.66
2024-02-06T08:29:41.156Z,100075.28
2024-02-06T08:39:43.128Z,100073.38
2024-02-06T08:49:45.118Z,100071.91
2024-02-06T08:59:52.179Z,100102.22
2024-02-06T09:09:58.006Z,100103.34
2024-02-06T09:20:00.291Z,100082.09
2024-02-06T09:30:13.333Z,100084.50
2024-02-06T09:40:21.586Z,100104.63
2024-02-06T09:50:23.621Z,100109.69
2024-02-06T10:00:27.746Z,100079.09
2024-02-06T10:10:31.827Z,100081.63
2024-02-06T10:20:48.719Z,100071.66
2024-02-06T10:30:54.089Z,100065.72
2024-02-06T10:41:06.023Z,100066.31
2024-02-06T10:51:28.427Z,100037.69
2024-02-06T11:01:43.787Z,100026.59
2024-02-06T11:11:46.839Z,100020.78
2024-02-06T11:21:57.492Z,100017.63
2024-02-06T11:32:03.041Z,100014.59
2024-02-06T11:42:04.983Z,100000.13
2024-02-06T11:52:09.325Z,99986.16
2024-02-06T12:02:12.888Z,99989.38
2024-02-06T12:12:23.545Z,99969.59
2024-02-06T12:22:25.397Z,99964.78
2024-02-06T12:32:27.581Z,99949.91
2024-02-06T12:42:29.465Z,99946.25
2024-02-06T12:52:31.301Z,99929.56
2024-02-06T13:02:35.516Z,99921.38
2024-02-06T13:12:47.900Z,99919.19
2024-02-06T13:22:52.371Z,99908.13
2024-02-06T13:32:54.273Z,99889.22
2024-02-06T13:42:56.164Z,99887.78
2024-02-06T13:53:02.455Z,99899.94
2024-02-06T14:03:11.728Z,99883.63
2024-02-06T14:13:19.076Z,99882.25
2024-02-06T14:23:24.977Z,99888.28
2024-02-06T14:33:29.120Z,99891.03
2024-02-06T14:43:32.590Z,99887.47
2024-02-06T14:53:36.908Z,99882.03
2024-02-06T15:03:41.252Z,99902.34
2024-02-06T15:13:43.418Z,99895.22
2024-02-06T15:23:47.023Z,99895.03
2024-02-06T15:33:54.093Z,99898.38
2024-02-06T15:43:57.172Z,99899.50
2024-02-06T15:54:00.718Z,99897.22
2024-02-06T16:04:04.862Z,99902.28
2024-02-06T16:14:07.832Z,99898.22
2024-02-06T16:24:12.087Z,99910.19
2024-02-06T16:34:15.006Z,99915.91
2024-02-06T16:44:24.803Z,99948.56
2024-02-06T16:54:29.544Z,99948.94
2024-02-06T17:04:31.499Z,99941.56
2024-02-06T17:14:35.248Z,99942.81
2024-02-06T17:24:37.756Z,99937.09
2024-02-06T17:34:41.496Z,99953.84
2024-02-06T17:44:50.054Z,99953.38
2024-02-06T17:54:51.954Z,99944.06
2024-02-06T18:04:56.229Z,99951.13
2024-02-06T18:14:58.425Z,99950.66
2024-02-06T18:25:01.897Z,99942.31
2024-02-06T18:35:04.139Z,99949.41
2024-02-06T18:45:06.613Z,99953.13
2024-02-06T18:55:13.842Z,99959.41
2024-02-06T19:05:16.041Z,99939.66
2024-02-06T19:15:18.405Z,99937.09
2024-02-06T19:25:21.607Z,99937.25
2024-02-06T19:35:23.691Z,99941.66
2024-02-06T19:45:25.502Z,99937.59
2024-02-06T19:55:28.068Z,99951.44
2024-02-06T20:05:29.962Z,99951.66
2024-02-06T20:15:34.463Z,99976.03
2024-02-06T20:25:36.403Z,99979.63
2024-02-06T20:35:38.532Z,99984.97
2024-02-06T20:45:42.724Z,99977.38
2024-02-06T20:55:44.599Z,99982.72
2024-02-06T21:05:47.327Z,99963.84
2024-02-06T21:15:49.342Z,99970.88
2024-02-06T21:25:51.807Z,99969.22
2024-02-06T21:35:53.642Z,99958.22
2024-02-06T21:45:56.071Z,99958.31
2024-02-06T21:56:08.261Z,99937.78
2024-02-06T22:06:17.443Z,99922.25
2024-02-06T22:16:21.674Z,99922.22
2024-02-06T22:26:25.208Z,99912.69
2024-02-06T22:36:28.630Z,99910.03
2024-02-06T22:46:30.531Z,99922.81
2024-02-06T22:56:32.353Z,99919.34
2024-02-06T23:06:36.052Z,99914.28
2024-02-06T23:16:38.356Z,99920.28
2024-02-06T23:26:40.230Z,99911.75
2024-02-06T23:36:42.052Z,99888.41
2024-02-06T23:46:43.890Z,99882.25
2024-02-06T23:56:45.786Z,99875.38
